createdAt,value
2019-02-11T00:01:23.124Z,3.80
2019-02-11T00:03:59.521Z,3.80
2019-02-11T00:06:26.819Z,3.80
2019-02-11T00:08:57.294Z,3.80
2019-02-11T00:11:30.253Z,3.90
2019-02-11T00:14:00.658Z,3.90
2019-02-11T00:16:31.066Z,4.00
2019-02-11T00:19:01.494Z,4.10
2019-02-11T00:21:37.445Z,4.00
2019-02-11T00:24:08.900Z,4.10
2019-02-11T00:26:39.295Z,4.10
2019-02-11T00:29:09.674Z,4.10
2019-02-11T00:31:40.049Z,4.10
2019-02-11T00:34:10.845Z,4.20
2019-02-11T00:36:41.258Z,4.20
2019-02-11T00:39:11.634Z,4.20
2019-02-11T00:41:42.017Z,4.20
2019-02-11T00:44:12.425Z,4.20
2019-02-11T00:46:42.783Z,4.20
2019-02-11T00:49:13.157Z,4.20
2019-02-11T00:51:43.537Z,4.20
2019-02-11T00:54:13.945Z,4.20
2019-02-11T00:56:44.393Z,4.20
2019-02-11T00:59:14.786Z,4.30
2019-02-11T01:01:45.256Z,4.30
2019-02-11T01:04:15.613Z,4.10
2019-02-11T01:06:46.110Z,4.20
2019-02-11T01:09:16.519Z,4.20
2019-02-11T01:11:48.130Z,4.10
2019-02-11T01:14:18.687Z,4.10
2019-02-11T01:16:49.565Z,4.20
2019-02-11T01:19:20.372Z,4.10
2019-02-11T01:21:50.845Z,4.20
2019-02-11T01:24:21.226Z,4.20
2019-02-11T01:26:51.683Z,4.00
2019-02-11T01:29:22.083Z,4.00
2019-02-11T01:31:52.471Z,4.10
2019-02-11T01:34:22.854Z,4.10
2019-02-11T01:36:53.214Z,4.20
2019-02-11T01:39:23.564Z,4.20
2019-02-11T01:41:53.942Z,4.20
2019-02-11T01:44:24.313Z,4.30
2019-02-11T01:46:54.673Z,4.20
2019-02-11T01:49:25.090Z,4.30
2019-02-11T01:51:55.501Z,4.30
2019-02-11T01:54:25.877Z,4.30
2019-02-11T01:56:56.359Z,4.30
2019-02-11T01:59:26.782Z,4.20
2019-02-11T02:01:57.146Z,4.20
2019-02-11T02:04:27.533Z,4.10
2019-02-11T02:06:57.895Z,4.10
2019-02-11T02:09:28.269Z,4.10
2019-02-11T02:11:59.030Z,4.10
2019-02-11T02:14:29.417Z,4.10
2019-02-11T02:16:59.785Z,4.20
2019-02-11T02:19:30.158Z,4.20
2019-02-11T02:22:00.541Z,4.20
2019-02-11T02:24:30.930Z,4.30
2019-02-11T02:27:01.319Z,4.30
2019-02-11T02:29:31.688Z,4.20
2019-02-11T02:32:02.056Z,4.20
2019-02-11T02:34:32.446Z,4.20
2019-02-11T02:37:02.825Z,4.30
2019-02-11T02:39:33.191Z,4.30
2019-02-11T02:42:03.664Z,4.40
2019-02-11T02:44:34.057Z,4.40
2019-02-11T02:47:04.420Z,4.30
2019-02-11T02:49:34.818Z,4.30
2019-02-11T02:52:05.185Z,4.30
2019-02-11T02:54:35.535Z,4.30
2019-02-11T02:57:05.939Z,4.30
2019-02-11T02:59:36.291Z,4.20
2019-02-11T03:02:06.668Z,4.20
2019-02-11T03:04:37.015Z,4.30
2019-02-11T03:07:07.393Z,4.30
2019-02-11T03:09:37.798Z,4.40
2019-02-11T03:12:08.197Z,4.40
2019-02-11T03:14:38.552Z,4.30
2019-02-11T03:17:08.920Z,4.20
2019-02-11T03:19:39.292Z,4.20
2019-02-11T03:22:09.681Z,4.10
2019-02-11T03:24:40.043Z,4.10
2019-02-11T03:27:10.431Z,4.00
2019-02-11T03:29:40.775Z,4.20
2019-02-11T03:32:11.154Z,4.20
2019-02-11T03:34:41.577Z,4.10
2019-02-11T03:37:11.996Z,4.20
2019-02-11T03:39:42.370Z,4.30
2019-02-11T03:42:12.758Z,4.20
2019-02-11T03:44:43.122Z,4.20
2019-02-11T03:47:13.506Z,4.20
2019-02-11T03:49:43.866Z,4.20
2019-02-11T03:52:14.227Z,4.20
2019-02-11T03:54:44.786Z,4.10
2019-02-11T03:57:15.151Z,4.10
2019-02-11T03:59:45.623Z,4.20
2019-02-11T04:02:16.048Z,4.20
2019-02-11T04:04:46.428Z,4.20
2019-02-11T04:07:16.855Z,4.20
2019-02-11T04:09:47.251Z,4.30
2019-02-11T04:12:17.596Z,4.20
2019-02-11T04:14:47.978Z,4.10
2019-02-11T04:17:18.379Z,4.10
2019-02-11T04:19:48.950Z,4.20
2019-02-11T04:22:19.330Z,4.30
2019-02-11T04:24:49.706Z,4.20
2019-02-11T04:27:20.078Z,4.10
2019-02-11T04:29:50.463Z,4.10
2019-02-11T04:32:20.840Z,4.20
2019-02-11T04:34:51.232Z,4.10
2019-02-11T04:37:21.591Z,4.10
2019-02-11T04:39:51.973Z,4.10
2019-02-11T04:42:22.361Z,4.00
2019-02-11T04:44:52.764Z,4.10
2019-02-11T04:47:23.135Z,4.00
2019-02-11T04:49:53.510Z,4.00
2019-02-11T04:52:23.882Z,4.00
2019-02-11T04:54:54.251Z,3.90
2019-02-11T04:57:24.640Z,4.00
2019-02-11T04:59:55.105Z,4.10
2019-02-11T05:02:25.460Z,4.10
2019-02-11T05:04:55.823Z,4.20
2019-02-11T05:07:26.575Z,4.20
2019-02-11T05:09:56.961Z,4.20
2019-02-11T05:12:27.353Z,4.20
2019-02-11T05:14:57.750Z,4.30
2019-02-11T05:17:28.146Z,4.20
2019-02-11T05:19:58.530Z,4.30
2019-02-11T05:22:28.998Z,4.20
2019-02-11T05:24:59.394Z,4.30
2019-02-11T05:27:29.775Z,4.30
2019-02-11T05:30:00.297Z,4.40
2019-02-11T05:32:30.703Z,4.30
2019-02-11T05:35:01.093Z,4.40
2019-02-11T05:37:31.565Z,4.40
2019-02-11T05:40:01.927Z,4.40
2019-02-11T05:42:32.346Z,4.30
2019-02-11T05:45:02.724Z,4.30
2019-02-11T05:47:33.184Z,4.30
2019-02-11T05:50:03.663Z,4.20
2019-02-11T05:52:34.058Z,4.10
2019-02-11T05:55:04.502Z,4.10
2019-02-11T05:57:38.160Z,4.10
2019-02-11T06:00:10.055Z,4.20
2019-02-11T06:02:40.477Z,4.20
2019-02-11T06:05:10.913Z,4.30
2019-02-11T06:07:41.334Z,4.30
2019-02-11T06:10:11.863Z,4.30
2019-02-11T06:12:42.286Z,4.30
2019-02-11T06:15:12.717Z,4.30
2019-02-11T06:17:43.096Z,4.20
2019-02-11T06:20:13.545Z,4.30
2019-02-11T06:22:43.933Z,4.30
2019-02-11T06:25:14.304Z,4.30
2019-02-11T06:27:44.781Z,4.20
2019-02-11T06:30:15.384Z,4.20
2019-02-11T06:32:45.756Z,4.20
2019-02-11T06:35:16.162Z,4.30
2019-02-11T06:37:46.543Z,4.30
2019-02-11T06:40:16.912Z,4.20
2019-02-11T06:42:47.279Z,4.20
2019-02-11T06:45:21.306Z,4.30
2019-02-11T06:47:51.661Z,4.30
2019-02-11T06:50:22.032Z,4.40
2019-02-11T06:52:52.386Z,4.40
2019-02-11T06:55:22.774Z,4.40
2019-02-11T06:57:53.170Z,4.50
2019-02-11T07:00:23.546Z,4.50
2019-02-11T07:02:53.930Z,4.40
2019-02-11T07:05:24.334Z,4.30
2019-02-11T07:07:54.789Z,4.40
2019-02-11T07:10:25.225Z,4.20
2019-02-11T07:12:55.613Z,4.20
2019-02-11T07:15:25.986Z,4.20
2019-02-11T07:17:56.374Z,4.10
2019-02-11T07:20:26.751Z,4.10
2019-02-11T07:22:57.118Z,4.20
2019-02-11T07:25:27.573Z,4.20
2019-02-11T07:27:57.942Z,4.30
2019-02-11T07:30:28.305Z,4.30
2019-02-11T07:32:58.661Z,4.20
2019-02-11T07:35:29.181Z,4.20
2019-02-11T07:37:59.534Z,4.30
2019-02-11T07:40:30.021Z,4.20
2019-02-11T07:43:22.115Z,4.30
2019-02-11T07:46:11.602Z,4.30
2019-02-11T07:48:41.973Z,4.30
2019-02-11T07:51:12.378Z,4.30
2019-02-11T07:53:42.741Z,4.40
2019-02-11T07:56:13.133Z,4.40
2019-02-11T07:58:43.531Z,4.40
2019-02-11T08:01:13.902Z,4.50
2019-02-11T08:03:44.314Z,4.30
2019-02-11T08:06:14.719Z,4.30
2019-02-11T08:08:45.074Z,4.30
2019-02-11T08:11:15.494Z,4.20
2019-02-11T08:13:45.879Z,4.40
2019-02-11T08:16:16.262Z,4.30
2019-02-11T08:18:46.597Z,4.30
2019-02-11T08:21:17.078Z,4.30
2019-02-11T08:23:47.422Z,4.40
2019-02-11T08:26:17.804Z,4.30
2019-02-11T08:28:48.160Z,4.40
2019-02-11T08:31:18.507Z,4.50
2019-02-11T08:33:48.866Z,4.70
2019-02-11T08:36:19.201Z,4.70
2019-02-11T08:38:49.557Z,4.90
2019-02-11T08:41:19.932Z,5.20
2019-02-11T08:43:50.318Z,5.20
2019-02-11T08:46:20.651Z,5.20
2019-02-11T08:48:52.316Z,5.30
2019-02-11T08:51:22.749Z,5.30
2019-02-11T08:53:53.117Z,5.30
2019-02-11T08:56:23.465Z,5.10
2019-02-11T08:58:53.837Z,5.00
2019-02-11T09:01:24.214Z,4.90
2019-02-11T09:03:54.569Z,5.00
2019-02-11T09:06:24.909Z,5.00
2019-02-11T09:08:55.280Z,5.10
2019-02-11T09:11:25.749Z,5.00
2019-02-11T09:13:56.141Z,5.00
2019-02-11T09:16:26.625Z,5.10
2019-02-11T09:18:57.073Z,5.00
2019-02-11T09:21:27.455Z,5.00
2019-02-11T09:23:57.801Z,5.00
2019-02-11T09:26:28.147Z,5.00
2019-02-11T09:28:58.487Z,5.00
2019-02-11T09:31:28.844Z,5.00
2019-02-11T09:33:59.184Z,5.00
2019-02-11T09:36:29.674Z,4.90
2019-02-11T09:39:00.015Z,4.80
2019-02-11T09:41:32.182Z,4.90
2019-02-11T09:44:02.402Z,5.10
2019-02-11T09:46:32.774Z,4.90
2019-02-11T09:49:03.129Z,4.90
2019-02-11T09:51:35.714Z,5.00
2019-02-11T09:54:06.633Z,5.00
2019-02-11T09:56:37.421Z,5.00
2019-02-11T09:59:07.769Z,5.00
2019-02-11T10:01:38.541Z,5.10
2019-02-11T10:04:08.893Z,5.20
2019-02-11T10:06:39.248Z,5.40
2019-02-11T10:09:09.585Z,5.60
2019-02-11T10:11:39.925Z,6.00
2019-02-11T10:14:10.262Z,6.30
2019-02-11T10:16:40.721Z,6.50
2019-02-11T10:19:11.081Z,6.50
2019-02-11T10:21:41.443Z,6.60
2019-02-11T10:24:11.803Z,6.60
2019-02-11T10:26:42.155Z,6.60
2019-02-11T10:29:12.510Z,6.90
2019-02-11T10:31:42.882Z,6.90
2019-02-11T10:34:13.254Z,6.70
2019-02-11T10:36:43.612Z,6.70
2019-02-11T10:39:13.944Z,6.60
2019-02-11T10:41:44.306Z,6.40
2019-02-11T10:44:14.708Z,6.30
2019-02-11T10:46:45.050Z,6.30
2019-02-11T10:49:15.697Z,6.60
2019-02-11T10:51:46.130Z,6.90
2019-02-11T10:54:16.581Z,6.80
2019-02-11T10:56:46.948Z,6.70
2019-02-11T10:59:17.315Z,6.80
2019-02-11T11:01:47.662Z,6.70
2019-02-11T11:04:18.234Z,6.60
2019-02-11T11:06:48.574Z,6.40
2019-02-11T11:09:19.037Z,6.40
2019-02-11T11:11:49.382Z,6.20
2019-02-11T11:14:19.755Z,6.00
2019-02-11T11:16:50.093Z,6.40
2019-02-11T11:19:21.553Z,6.20
2019-02-11T11:21:51.891Z,6.30
2019-02-11T11:24:22.236Z,6.40
2019-02-11T11:26:52.605Z,6.50
2019-02-11T11:29:22.962Z,6.50
2019-02-11T11:31:53.318Z,6.80
2019-02-11T11:34:23.703Z,7.00
2019-02-11T11:36:54.042Z,7.10
2019-02-11T11:39:26.241Z,7.20
2019-02-11T11:41:56.582Z,7.00
2019-02-11T11:44:26.929Z,7.00
2019-02-11T11:46:57.266Z,6.90
2019-02-11T11:49:27.851Z,7.10
2019-02-11T11:51:58.204Z,7.60
2019-02-11T11:54:28.557Z,7.70
2019-02-11T11:56:59.509Z,7.60
2019-02-11T11:59:30.094Z,7.50
2019-02-11T12:02:00.435Z,7.30
2019-02-11T12:04:30.793Z,7.10
2019-02-11T12:07:01.260Z,6.60
2019-02-11T12:09:31.645Z,6.60
2019-02-11T12:12:02.026Z,6.60
2019-02-11T12:14:32.461Z,6.50
2019-02-11T12:17:03.594Z,6.40
2019-02-11T12:19:34.189Z,6.50
2019-02-11T12:22:04.665Z,6.40
2019-02-11T12:24:35.091Z,6.40
2019-02-11T12:27:05.533Z,6.40
2019-02-11T12:29:36.153Z,6.20
2019-02-11T12:32:06.586Z,6.20
2019-02-11T12:34:37.133Z,6.20
2019-02-11T12:37:09.359Z,6.10
2019-02-11T12:39:39.547Z,5.90
2019-02-11T12:42:10.091Z,5.70
2019-02-11T12:44:40.519Z,5.50
2019-02-11T12:47:14.513Z,5.50
2019-02-11T12:49:42.917Z,5.50
2019-02-11T12:52:13.279Z,5.50
2019-02-11T12:54:43.658Z,5.40
2019-02-11T12:57:14.087Z,5.60
2019-02-11T12:59:44.433Z,6.30
2019-02-11T13:02:14.807Z,6.70
2019-02-11T13:04:45.198Z,6.90
2019-02-11T13:07:15.623Z,7.00
2019-02-11T13:09:46.052Z,7.00
2019-02-11T13:12:16.424Z,7.30
2019-02-11T13:14:47.295Z,7.90
2019-02-11T13:17:32.645Z,8.60
2019-02-11T13:20:06.717Z,9.10
2019-02-11T13:22:22.110Z,9.30
2019-02-11T13:24:52.476Z,9.00
2019-02-11T13:27:22.849Z,8.30
2019-02-11T13:29:53.216Z,8.00
2019-02-11T13:32:23.576Z,7.90
2019-02-11T13:34:54.087Z,7.60
2019-02-11T13:37:24.589Z,7.30
2019-02-11T13:39:55.070Z,7.00
2019-02-11T13:42:25.597Z,6.70
2019-02-11T13:44:56.058Z,7.00
2019-02-11T13:47:26.437Z,7.40
2019-02-11T13:49:56.979Z,7.30
2019-02-11T13:52:27.594Z,7.20
2019-02-11T13:54:57.971Z,7.50
2019-02-11T13:57:28.826Z,8.00
2019-02-11T13:59:59.210Z,8.10
2019-02-11T14:02:29.549Z,8.00
2019-02-11T14:05:00.034Z,7.70
2019-02-11T14:07:30.572Z,7.20
2019-02-11T14:10:02.400Z,7.30
2019-02-11T14:12:33.166Z,7.10
2019-02-11T14:15:03.583Z,7.00
2019-02-11T14:17:34.040Z,7.10
2019-02-11T14:20:04.538Z,7.00
2019-02-11T14:22:34.916Z,6.90
2019-02-11T14:25:05.911Z,6.80
2019-02-11T14:27:36.492Z,6.70
2019-02-11T14:30:07.640Z,6.60
2019-02-11T14:32:38.120Z,6.60
2019-02-11T14:35:08.574Z,6.60
2019-02-11T14:37:39.118Z,6.30
2019-02-11T14:40:10.140Z,6.50
2019-02-11T14:42:40.506Z,6.70
2019-02-11T14:45:11.641Z,6.70
2019-02-11T14:47:44.498Z,6.80
2019-02-11T14:50:14.148Z,6.70
2019-02-11T14:52:44.525Z,6.70
2019-02-11T14:55:14.914Z,6.70
2019-02-11T14:57:45.279Z,6.70
2019-02-11T15:00:18.622Z,7.50
2019-02-11T15:02:49.039Z,8.50
2019-02-11T15:05:19.584Z,9.10
2019-02-11T15:07:50.042Z,9.60
2019-02-11T15:10:20.443Z,9.90
2019-02-11T15:12:50.811Z,9.90
2019-02-11T15:15:21.292Z,9.60
2019-02-11T15:17:51.668Z,9.20
2019-02-11T15:20:22.045Z,9.00
2019-02-11T15:22:52.417Z,8.80
2019-02-11T15:25:22.811Z,8.80
2019-02-11T15:27:53.248Z,9.10
2019-02-11T15:30:23.610Z,9.10
2019-02-11T15:32:54.117Z,9.10
2019-02-11T15:35:24.499Z,9.00
2019-02-11T15:37:54.894Z,9.10
2019-02-11T15:40:25.382Z,9.20
2019-02-11T15:42:55.785Z,9.10
2019-02-11T15:45:26.191Z,9.10
2019-02-11T15:47:56.606Z,8.90
2019-02-11T15:50:26.999Z,8.50
2019-02-11T15:52:58.998Z,8.50
2019-02-11T15:55:29.597Z,8.30
2019-02-11T15:57:59.979Z,8.00
2019-02-11T16:00:30.375Z,7.80
2019-02-11T16:03:00.844Z,7.60
2019-02-11T16:05:31.274Z,7.40
2019-02-11T16:08:01.652Z,7.40
2019-02-11T16:10:32.022Z,7.40
2019-02-11T16:13:02.411Z,7.10
2019-02-11T16:15:32.887Z,7.10
2019-02-11T16:18:03.235Z,7.00
2019-02-11T16:20:33.633Z,6.80
2019-02-11T16:23:04.029Z,6.70
2019-02-11T16:25:34.403Z,6.80
2019-02-11T16:28:04.771Z,6.50
2019-02-11T16:30:35.176Z,6.70
2019-02-11T16:33:05.583Z,6.70
2019-02-11T16:35:36.006Z,6.60
2019-02-11T16:38:06.413Z,6.50
2019-02-11T16:40:36.869Z,6.40
2019-02-11T16:43:07.258Z,6.50
2019-02-11T16:45:37.661Z,6.50
2019-02-11T16:48:08.029Z,6.40
2019-02-11T16:50:38.465Z,6.40
2019-02-11T16:53:08.919Z,6.40
2019-02-11T16:55:39.334Z,6.40
2019-02-11T16:58:09.737Z,6.50
2019-02-11T17:00:40.166Z,6.50
2019-02-11T17:03:10.568Z,6.40
2019-02-11T17:05:40.975Z,6.40
2019-02-11T17:08:11.455Z,6.30
2019-02-11T17:10:41.823Z,6.40
2019-02-11T17:13:12.285Z,6.30
2019-02-11T17:15:42.734Z,6.20
2019-02-11T17:18:13.153Z,6.00
2019-02-11T17:20:43.489Z,6.00
2019-02-11T17:23:13.915Z,6.00
2019-02-11T17:25:44.287Z,6.20
2019-02-11T17:28:14.687Z,6.20
2019-02-11T17:30:45.133Z,6.10
2019-02-11T17:33:15.530Z,6.10
2019-02-11T17:35:45.952Z,6.00
2019-02-11T17:38:16.405Z,6.00
2019-02-11T17:40:46.767Z,6.10
2019-02-11T17:43:17.501Z,6.10
2019-02-11T17:45:47.867Z,6.20
2019-02-11T17:48:19.234Z,6.10
2019-02-11T17:50:49.591Z,6.10
2019-02-11T17:53:20.427Z,6.10
2019-02-11T17:55:50.906Z,6.10
2019-02-11T17:58:21.403Z,6.00
2019-02-11T18:00:56.046Z,6.00
2019-02-11T18:03:26.516Z,6.00
2019-02-11T18:05:56.859Z,5.90
2019-02-11T18:08:27.266Z,5.80
2019-02-11T18:10:57.670Z,5.90
2019-02-11T18:13:28.061Z,6.00
2019-02-11T18:15:58.466Z,6.00
2019-02-11T18:18:28.874Z,6.00
2019-02-11T18:20:59.280Z,6.00
2019-02-11T18:23:29.679Z,5.90
2019-02-11T18:26:00.096Z,5.80
2019-02-11T18:28:30.482Z,5.80
2019-02-11T18:31:01.064Z,5.80
2019-02-11T18:33:31.509Z,5.90
2019-02-11T18:36:02.159Z,5.50
2019-02-11T18:38:32.557Z,5.50
2019-02-11T18:41:03.048Z,5.60
2019-02-11T18:43:33.547Z,5.70
2019-02-11T18:46:04.051Z,5.70
2019-02-11T18:48:34.398Z,5.70
2019-02-11T18:51:04.868Z,5.60
2019-02-11T18:53:35.266Z,5.60
2019-02-11T18:56:05.705Z,5.70
2019-02-11T18:58:36.176Z,5.70
2019-02-11T19:01:06.658Z,5.70
2019-02-11T19:03:37.044Z,5.70
2019-02-11T19:06:07.449Z,5.60
2019-02-11T19:08:37.871Z,5.70
2019-02-11T19:11:08.290Z,5.60
2019-02-11T19:13:38.661Z,5.70
2019-02-11T19:16:09.040Z,5.80
2019-02-11T19:18:39.459Z,5.80
2019-02-11T19:21:09.944Z,5.90
2019-02-11T19:23:40.399Z,5.80
2019-02-11T19:26:10.922Z,5.80
2019-02-11T19:28:41.297Z,5.80
2019-02-11T19:31:11.731Z,5.70
2019-02-11T19:33:42.212Z,5.80
2019-02-11T19:36:12.669Z,5.70
2019-02-11T19:38:43.077Z,5.70
2019-02-11T19:41:13.571Z,5.80
2019-02-11T19:43:43.954Z,5.90
2019-02-11T19:46:14.374Z,5.70
2019-02-11T19:48:44.752Z,5.80
2019-02-11T19:51:15.159Z,5.90
2019-02-11T19:53:45.674Z,5.90
2019-02-11T19:56:16.106Z,5.90
2019-02-11T19:58:46.475Z,5.90
2019-02-11T20:01:16.885Z,5.90
2019-02-11T20:03:47.982Z,5.70
2019-02-11T20:06:18.441Z,5.50
2019-02-11T20:08:48.891Z,5.50
2019-02-11T20:11:19.393Z,5.60
2019-02-11T20:13:49.873Z,5.60
2019-02-11T20:16:20.335Z,5.30
2019-02-11T20:18:50.744Z,5.20
2019-02-11T20:21:21.222Z,5.20
2019-02-11T20:23:51.616Z,5.40
2019-02-11T20:26:22.079Z,5.40
2019-02-11T20:28:52.447Z,5.40
2019-02-11T20:31:22.832Z,5.40
2019-02-11T20:33:53.257Z,5.30
2019-02-11T20:36:23.729Z,5.40
2019-02-11T20:38:54.230Z,5.50
2019-02-11T20:41:24.662Z,5.40
2019-02-11T20:43:55.102Z,5.30
2019-02-11T20:46:25.552Z,5.30
2019-02-11T20:48:56.003Z,5.20
2019-02-11T20:51:26.404Z,5.20
2019-02-11T20:53:56.910Z,5.30
2019-02-11T20:56:27.305Z,5.10
2019-02-11T20:58:57.748Z,5.10
2019-02-11T21:01:28.187Z,4.90
2019-02-11T21:03:58.562Z,4.80
2019-02-11T21:06:29.033Z,4.70
2019-02-11T21:08:59.532Z,4.80
2019-02-11T21:11:29.929Z,4.80
2019-02-11T21:14:00.435Z,4.90
2019-02-11T21:16:30.897Z,5.10
2019-02-11T21:19:01.249Z,5.20
2019-02-11T21:21:31.636Z,5.00
2019-02-11T21:24:02.064Z,5.10
2019-02-11T21:26:32.449Z,5.10
2019-02-11T21:29:02.949Z,5.10
2019-02-11T21:31:33.349Z,5.00
2019-02-11T21:34:04.072Z,5.10
2019-02-11T21:36:34.568Z,4.90
2019-02-11T21:39:06.517Z,5.00
2019-02-11T21:41:36.877Z,4.80
2019-02-11T21:44:07.253Z,5.00
2019-02-11T21:46:37.660Z,5.00
2019-02-11T21:49:08.133Z,5.00
2019-02-11T21:51:38.519Z,5.10
2019-02-11T21:54:08.889Z,5.10
2019-02-11T21:56:39.267Z,5.10
2019-02-11T21:59:09.662Z,5.00
2019-02-11T22:01:40.065Z,4.90
2019-02-11T22:04:10.518Z,5.00
2019-02-11T22:06:40.935Z,4.90
2019-02-11T22:09:11.289Z,4.90
2019-02-11T22:11:41.658Z,4.90
2019-02-11T22:14:12.142Z,4.70
2019-02-11T22:16:42.527Z,4.70
2019-02-11T22:19:12.905Z,4.80
2019-02-11T22:21:43.318Z,4.80
2019-02-11T22:24:13.666Z,4.80
2019-02-11T22:26:44.088Z,4.70
2019-02-11T22:29:14.440Z,4.70
2019-02-11T22:31:44.822Z,4.60
2019-02-11T22:34:16.259Z,4.60
2019-02-11T22:36:46.615Z,4.60
2019-02-11T22:39:16.974Z,4.50
2019-02-11T22:41:47.325Z,4.40
2019-02-11T22:44:17.702Z,4.40
2019-02-11T22:46:48.115Z,4.50
2019-02-11T22:49:18.491Z,4.40
2019-02-11T22:51:48.885Z,4.40
2019-02-11T22:54:19.263Z,4.40
2019-02-11T22:56:49.622Z,4.30
2019-02-11T22:59:20.134Z,4.30
2019-02-11T23:01:50.596Z,4.20
2019-02-11T23:04:21.101Z,4.10
2019-02-11T23:06:51.485Z,4.10
2019-02-11T23:09:21.873Z,4.10
2019-02-11T23:11:52.229Z,4.10
2019-02-11T23:14:22.646Z,4.10
2019-02-11T23:16:53.014Z,4.10
2019-02-11T23:19:23.394Z,4.00
2019-02-11T23:21:53.757Z,4.10
2019-02-11T23:24:24.133Z,4.10
2019-02-11T23:26:54.490Z,4.10
2019-02-11T23:29:24.849Z,4.00
2019-02-11T23:31:55.341Z,3.90
2019-02-11T23:34:25.710Z,4.00
2019-02-11T23:36:56.113Z,4.00
2019-02-11T23:39:26.496Z,3.90
2019-02-11T23:41:56.892Z,3.90
2019-02-11T23:44:27.223Z,3.80
2019-02-11T23:46:57.581Z,3.80
2019-02-11T23:49:27.991Z,3.70
2019-02-11T23:51:58.355Z,3.70
2019-02-11T23:54:28.707Z,3.60
2019-02-11T23:56:59.105Z,3.60
2019-02-11T23:59:29.455Z,3.70
